Time,TemperatureF,DewpointF,PressureIn,WindDirection,WindDirectionDegrees,WindSpeedMPH,WindSpeedGustMPH,Humidity,HourlyPrecipIn,Conditions,Clouds,dailyrainin,SoftwareType,DateUTC
2014-07-13 00:00:00,82.2,70.6,29.97,South,186,5.0,13.0,68,0.00,FEW,,0.00,WeatherDisplay:10.37,2014-07-13 05:00:00,
2014-07-13 00:14:00,82.1,70.5,29.98,SSW,192,7.0,20.0,68,0.00,CLR,,0.00,WeatherDisplay:10.37,2014-07-13 05:14:00,
2014-07-13 00:30:00,82.3,70.7,29.99,SSW,192,5.0,12.0,68,0.00,CLR,,0.00,WeatherDisplay:10.37,2014-07-13 05:30:00,
2014-07-13 00:45:00,82.3,70.2,29.99,South,188,6.0,13.0,67,0.00,CLR,,0.00,WeatherDisplay:10.37,2014-07-13 05:45:00,
2014-07-13 01:00:00,82.3,70.2,29.99,SSW,193,7.0,13.0,67,0.00,CLR,,0.00,WeatherDisplay:10.37,2014-07-13 06:00:00,
2014-07-13 01:15:00,82.0,70.8,30.01,WSW,255,5.0,12.0,69,0.00,BKN,,0.00,WeatherDisplay:10.37,2014-07-13 06:15:00,
2014-07-13 01:30:00,81.1,70.8,30.02,NW,314,3.0,10.0,71,0.00,BKN,,0.00,WeatherDisplay:10.37,2014-07-13 06:30:00,
2014-07-13 01:45:00,80.5,71.0,30.02,NW,308,1.0,10.0,73,0.00,BKN,,0.00,WeatherDisplay:10.37,2014-07-13 06:45:00,
2014-07-13 02:00:00,80.2,71.6,30.03,NNW,335,8.0,14.0,75,0.00,BKN,,0.00,WeatherDisplay:10.37,2014-07-13 07:00:00,
2014-07-13 02:15:00,78.3,71.2,30.04,North,5,9.0,20.0,79,0.04,RA,,0.05,WeatherDisplay:10.37,2014-07-13 07:15:00,
2014-07-13 02:30:00,75.8,69.9,30.05,North,354,7.0,12.0,82,0.02,RA,,0.06,WeatherDisplay:10.37,2014-07-13 07:30:00,
2014-07-13 02:45:00,74.6,69.1,30.06,North,353,1.0,12.0,83,0.00,OVC,,0.06,WeatherDisplay:10.37,2014-07-13 07:45:00,
2014-07-13 03:00:00,73.7,68.6,30.05,North,351,3.0,12.0,84,0.02,RA,,0.08,WeatherDisplay:10.37,2014-07-13 08:00:00,
2014-07-13 03:15:00,72.8,68.4,30.05,NNE,27,3.0,10.0,86,0.01,OVC,,0.09,WeatherDisplay:10.37,2014-07-13 08:15:00,
2014-07-13 03:30:00,72.7,68.6,30.06,NNW,348,3.0,8.0,87,0.00,OVC,,0.09,WeatherDisplay:10.37,2014-07-13 08:30:00,
2014-07-13 03:45:00,72.3,68.5,30.07,WNW,291,2.0,10.0,88,0.00,OVC,,0.09,WeatherDisplay:10.37,2014-07-13 08:45:00,
2014-07-13 04:00:00,72.0,68.6,30.07,WNW,290,3.0,8.0,89,0.00,OVC,,0.09,WeatherDisplay:10.37,2014-07-13 09:00:00,
2014-07-13 04:15:00,71.6,68.5,30.07,WNW,291,2.0,9.0,90,0.10,RA,,0.19,WeatherDisplay:10.37,2014-07-13 09:15:00,
2014-07-13 04:30:00,71.1,68.7,30.06,West,263,1.0,9.0,92,0.05,RA,,0.24,WeatherDisplay:10.37,2014-07-13 09:30:00,
2014-07-13 04:45:00,70.7,68.6,30.06,SW,227,0.0,3.0,93,0.02,RA,,0.26,WeatherDisplay:10.37,2014-07-13 09:45:00,
2014-07-13 05:00:00,70.4,68.3,30.06,WSW,237,1.0,4.0,93,0.01,RA,,0.27,WeatherDisplay:10.37,2014-07-13 10:00:00,
2014-07-13 05:15:00,70.3,68.5,30.06,WSW,238,0.0,4.0,94,0.00,-RA,,0.27,WeatherDisplay:10.37,2014-07-13 10:15:00,
2014-07-13 05:30:00,70.3,68.5,30.07,SW,222,1.0,8.0,94,0.02,-RA,,0.29,WeatherDisplay:10.37,2014-07-13 10:30:00,
2014-07-13 05:45:00,70.0,68.2,30.06,SSW,195,2.0,8.0,94,0.06,-RA,,0.35,WeatherDisplay:10.37,2014-07-13 10:45:00,
2014-07-13 06:00:00,69.9,68.4,30.06,SSW,197,3.0,7.0,95,0.03,-RA,,0.38,WeatherDisplay:10.37,2014-07-13 11:00:00,
2014-07-13 06:15:00,69.9,68.4,30.04,SSW,194,0.0,4.0,95,0.02, +RA,,0.40,WeatherDisplay:10.37,2014-07-13 11:15:00,
2014-07-13 06:30:00,69.9,68.4,30.04,SW,219,0.0,1.0,95,0.02, +RA,,0.42,WeatherDisplay:10.37,2014-07-13 11:30:00,
2014-07-13 06:45:00,70.0,68.8,30.04,North,349,0.0,1.0,96,0.03, +RA,,0.45,WeatherDisplay:10.37,2014-07-13 11:45:00,
2014-07-13 07:00:00,70.1,68.9,30.04,West,260,0.0,2.0,96,0.03, +RA,,0.48,WeatherDisplay:10.37,2014-07-13 12:00:00,
2014-07-13 07:15:00,70.1,68.9,30.05,WSW,247,0.0,3.0,96,0.01,-RA,,0.49,WeatherDisplay:10.37,2014-07-13 12:15:00,
2014-07-13 07:30:00,70.3,69.1,30.05,WSW,246,0.0,0.0,96,0.01,-RA,,0.50,WeatherDisplay:10.37,2014-07-13 12:30:00,
2014-07-13 07:45:00,70.3,69.1,30.05,WSW,246,0.0,0.0,96,0.01,-RA,,0.51,WeatherDisplay:10.37,2014-07-13 12:45:00,
2014-07-13 08:00:00,70.3,69.1,30.04,WSW,250,0.0,0.0,96,0.00,-RA,,0.51,WeatherDisplay:10.37,2014-07-13 13:00:00,
2014-07-13 08:15:00,70.5,69.3,30.05,WSW,240,0.0,1.0,96,0.00,-RA,,0.51,WeatherDisplay:10.37,2014-07-13 13:15:00,
2014-07-13 08:30:00,70.9,69.7,30.05,WSW,240,0.0,3.0,96,0.00,-RA,,0.51,WeatherDisplay:10.37,2014-07-13 13:30:00,
2014-07-13 08:45:00,71.3,70.1,30.05,WSW,240,0.0,2.0,96,0.00,-RA,,0.51,WeatherDisplay:10.37,2014-07-13 13:45:00,
2014-07-13 09:00:00,72.4,71.5,30.05,WSW,254,0.0,1.0,97,0.01,-RA,,0.52,WeatherDisplay:10.37,2014-07-13 14:00:00,
2014-07-13 09:15:00,73.2,72.0,30.05,West,271,1.0,7.0,96,0.00,OVC,,0.52,WeatherDisplay:10.37,2014-07-13 14:15:00,
2014-07-13 09:30:00,73.7,72.1,29.98,West,277,1.0,7.0,95,0.00,OVC,,0.52,WeatherDisplay:10.37,2014-07-13 14:30:00,
2014-07-13 09:45:00,75.0,72.8,30.02,NW,308,3.0,9.0,93,0.00,OVC,,0.52,WeatherDisplay:10.37,2014-07-13 14:45:00,
2014-07-13 10:00:00,75.8,72.7,30.02,NNW,334,6.0,9.0,90,0.00,OVC,,0.52,WeatherDisplay:10.37,2014-07-13 15:00:00,
2014-07-13 10:15:00,76.4,73.3,30.02,NNW,328,3.0,10.0,90,0.00,BKN,,0.52,WeatherDisplay:10.37,2014-07-13 15:15:00,
2014-07-13 10:30:00,77.2,73.7,30.02,NW,320,7.0,10.0,89,0.00,BKN,,0.52,WeatherDisplay:10.37,2014-07-13 15:30:00,
2014-07-13 10:45:00,77.6,73.1,30.02,NNW,344,7.0,12.0,86,0.00,BKN,,0.52,WeatherDisplay:10.37,2014-07-13 15:45:00,
2014-07-13 11:00:00,77.3,72.8,30.02,North,350,6.0,12.0,86,0.00,BKN,,0.52,WeatherDisplay:10.37,2014-07-13 16:00:00,
2014-07-13 11:15:00,76.9,72.8,30.03,NNW,340,5.0,12.0,87,0.00,OVC,,0.52,WeatherDisplay:10.37,2014-07-13 16:15:00,
2014-07-13 11:30:00,76.5,72.7,30.03,NNW,347,3.0,11.0,88,0.00,OVC,,0.52,WeatherDisplay:10.37,2014-07-13 16:30:00,
2014-07-13 11:45:00,75.9,72.1,30.04,NNW,341,5.0,8.0,88,0.00,OVC,,0.52,WeatherDisplay:10.37,2014-07-13 16:45:00,
2014-07-13 12:00:00,75.4,71.9,30.04,NNW,338,2.0,8.0,89,0.00,OVC,,0.52,WeatherDisplay:10.37,2014-07-13 17:00:00,
2014-07-13 12:15:00,75.6,72.1,30.04,NNW,333,0.0,5.0,89,0.00,OVC,,0.52,WeatherDisplay:10.37,2014-07-13 17:15:00,
2014-07-13 12:30:00,76.2,72.4,30.03,NNW,332,0.0,5.0,88,0.00,OVC,,0.52,WeatherDisplay:10.37,2014-07-13 17:30:00,
2014-07-13 12:45:00,76.6,71.7,30.03,NNW,345,2.0,6.0,85,0.00,OVC,,0.52,WeatherDisplay:10.37,2014-07-13 17:45:00,
2014-07-13 13:00:00,78.2,72.6,30.00,North,6,2.0,7.0,83,0.00,OVC,,0.52,WeatherDisplay:10.37,2014-07-13 18:00:00,
2014-07-13 13:15:00,78.6,72.3,30.00,NNW,348,1.0,9.0,81,0.00,BKN,,0.52,WeatherDisplay:10.37,2014-07-13 18:15:00,
2014-07-13 13:30:00,79.9,72.8,29.99,North,354,2.0,8.0,79,0.00,BKN,,0.52,WeatherDisplay:10.37,2014-07-13 18:30:00,
2014-07-13 13:45:00,80.6,72.3,29.99,North,2,1.0,8.0,76,0.00,BKN,,0.52,WeatherDisplay:10.37,2014-07-13 18:45:00,
2014-07-13 14:00:00,81.0,71.9,29.98,North,11,1.0,11.0,74,0.00,BKN,,0.52,WeatherDisplay:10.37,2014-07-13 19:00:00,
2014-07-13 14:15:00,81.4,72.3,29.98,NNW,346,2.0,12.0,74,0.00,BKN,,0.52,WeatherDisplay:10.37,2014-07-13 19:15:00,
2014-07-13 14:30:00,82.0,72.5,29.98,NNW,343,3.0,8.0,73,0.00,BKN,,0.52,WeatherDisplay:10.37,2014-07-13 19:30:00,
2014-07-13 14:45:00,82.6,73.1,29.98,NW,317,5.0,8.0,73,0.00,BKN,,0.52,WeatherDisplay:10.37,2014-07-13 19:45:00,
2014-07-13 15:00:00,83.0,72.2,29.97,North,357,5.0,9.0,70,0.00,BKN,,0.52,WeatherDisplay:10.37,2014-07-13 20:00:00,
2014-07-13 15:15:00,83.1,72.3,29.97,NNW,346,3.0,9.0,70,0.00,SCT,,0.52,WeatherDisplay:10.37,2014-07-13 20:15:00,
2014-07-13 15:30:00,83.2,72.0,29.97,North,0,3.0,10.0,69,0.00,SCT,,0.52,WeatherDisplay:10.37,2014-07-13 20:30:00,
2014-07-13 15:45:00,83.6,72.3,29.97,North,356,6.0,10.0,69,0.00,SCT,,0.52,WeatherDisplay:10.37,2014-07-13 20:45:00,
2014-07-13 16:00:00,83.6,71.0,29.97,NNW,347,3.0,11.0,66,0.00,SCT,,0.52,WeatherDisplay:10.37,2014-07-13 21:00:00,
2014-07-13 16:15:00,83.7,70.7,29.97,NNW,347,5.0,10.0,65,0.00,BKN,,0.52,WeatherDisplay:10.37,2014-07-13 21:15:00,
2014-07-13 16:30:00,83.7,69.3,29.97,North,354,5.0,12.0,62,0.00,BKN,,0.52,WeatherDisplay:10.37,2014-07-13 21:30:00,
2014-07-13 16:45:00,83.9,71.3,29.96,NNE,12,5.0,9.0,66,0.00,BKN,,0.52,WeatherDisplay:10.37,2014-07-13 21:45:00,
2014-07-13 17:00:00,84.0,70.0,29.96,North,357,5.0,9.0,63,0.00,BKN,,0.52,WeatherDisplay:10.37,2014-07-13 22:00:00,
2014-07-13 17:15:00,84.3,69.4,29.96,NNW,346,3.0,8.0,61,0.00,BKN,,0.52,WeatherDisplay:10.37,2014-07-13 22:15:00,
2014-07-13 17:30:00,84.5,69.1,29.96,North,349,2.0,7.0,60,0.00,BKN,,0.52,WeatherDisplay:10.37,2014-07-13 22:30:00,
2014-07-13 17:45:00,84.3,69.9,29.96,North,5,0.0,8.0,62,0.00,BKN,,0.52,WeatherDisplay:10.37,2014-07-13 22:45:00,
2014-07-13 18:00:00,84.9,70.9,29.95,North,1,1.0,4.0,63,0.00,BKN,,0.52,WeatherDisplay:10.37,2014-07-13 23:00:00,
2014-07-13 18:15:00,85.4,70.4,29.95,North,2,0.0,3.0,61,0.00,SCT,,0.52,WeatherDisplay:10.37,2014-07-13 23:15:00,
2014-07-13 18:30:00,85.6,70.6,29.95,NW,320,3.0,6.0,61,0.00,SCT,,0.52,WeatherDisplay:10.37,2014-07-13 23:30:00,
2014-07-13 18:45:00,84.9,69.9,29.94,NW,314,2.0,5.0,61,0.00,SCT,,0.52,WeatherDisplay:10.37,2014-07-13 23:45:00,
2014-07-13 19:00:00,84.7,70.7,29.94,NW,326,0.0,5.0,63,0.00,SCT,,0.52,WeatherDisplay:10.37,2014-07-14 00:00:00,
2014-07-13 19:15:00,85.2,70.7,29.94,NNW,342,0.0,1.0,62,0.00,FEW,,0.52,WeatherDisplay:10.37,2014-07-14 00:15:00,
2014-07-13 19:30:00,84.9,70.4,29.95,NNW,346,0.0,1.0,62,0.00,FEW,,0.52,WeatherDisplay:10.37,2014-07-14 00:30:00,
2014-07-13 19:45:00,84.5,70.5,29.95,West,259,0.0,2.0,63,0.00,FEW,,0.52,WeatherDisplay:10.37,2014-07-14 00:45:00,
2014-07-13 20:00:00,84.0,70.5,29.95,WSW,237,0.0,0.0,64,0.00,FEW,,0.52,WeatherDisplay:10.37,2014-07-14 01:00:00,
2014-07-13 20:15:00,82.6,71.4,29.95,SW,236,0.0,0.0,69,0.00,FEW,,0.52,WeatherDisplay:10.37,2014-07-14 01:15:00,
2014-07-13 20:30:00,81.4,72.7,29.95,SW,217,0.0,0.0,75,0.00,FEW,,0.52,WeatherDisplay:10.37,2014-07-14 01:30:00,
2014-07-13 20:45:00,80.0,72.2,29.94,West,274,0.0,1.0,77,0.00,FEW,,0.52,WeatherDisplay:10.37,2014-07-14 01:45:00,
2014-07-13 21:00:00,78.9,71.8,29.94,WNW,298,0.0,0.0,79,0.00,FEW,,0.52,WeatherDisplay:10.37,2014-07-14 02:00:00,
2014-07-13 21:15:00,78.0,71.3,29.94,WNW,301,0.0,0.0,80,0.00,SCT,,0.52,WeatherDisplay:10.37,2014-07-14 02:15:00,
2014-07-13 21:30:00,77.2,71.3,29.95,WNW,301,0.0,0.0,82,0.00,SCT,,0.52,WeatherDisplay:10.37,2014-07-14 02:30:00,
2014-07-13 21:45:00,76.4,70.8,29.95,WNW,301,0.0,0.0,83,0.00,SCT,,0.52,WeatherDisplay:10.37,2014-07-14 02:45:00,
2014-07-13 22:00:00,75.7,70.5,29.95,WNW,301,0.0,0.0,84,0.00,SCT,,0.52,WeatherDisplay:10.37,2014-07-14 03:00:00,
2014-07-13 22:15:00,75.2,70.4,29.96,WNW,301,0.0,0.0,85,0.00,SCT,,0.52,WeatherDisplay:10.37,2014-07-14 03:15:00,
2014-07-13 22:30:00,74.7,69.9,29.96,WNW,301,0.0,0.0,85,0.00,SCT,,0.52,WeatherDisplay:10.37,2014-07-14 03:30:00,
2014-07-13 22:45:00,74.0,69.6,29.96,WNW,301,0.0,0.0,86,0.00,SCT,,0.52,WeatherDisplay:10.37,2014-07-14 03:45:00,
2014-07-13 23:00:00,73.7,69.6,29.96,WNW,301,0.0,0.0,87,0.00,SCT,,0.52,WeatherDisplay:10.37,2014-07-14 04:00:00,